Time;durP1;ratioP1;P1;durP2;ratioP2;P2;SDS_P1;SDS_P2;PMS_P1;PMS_P2;Temp;Humidity;BMP_temperature;BMP_pressure;BME280_temperature;BME280_humidity;BME280_pressure;Samples;Min_cycle;Max_cycle;Signal;HPM_P1;HPM_P2
2021/06/03 00:00:39;;;;;;;6.70;6.20;;;18.50;99.90;;;;;;5031774;28;20436;-66
2021/06/03 00:03:07;;;;;;;6.40;5.90;;;18.50;99.90;;;;;;5032214;28;20413;-66
2021/06/03 00:05:47;;;;;;;6.43;5.83;;;18.50;99.90;;;;;;5032133;28;20447;-66
2021/06/03 00:08:15;;;;;;;6.80;6.20;;;18.50;99.90;;;;;;5032080;28;20409;-67
2021/06/03 00:10:50;;;;;;;6.63;6.07;;;18.50;99.90;;;;;;5031611;28;20428;-66
2021/06/03 00:13:17;;;;;;;7.37;6.87;;;18.50;99.90;;;;;;5031889;28;20459;-67
2021/06/03 00:15:42;;;;;;;7.27;6.67;;;18.50;99.90;;;;;;5031648;28;20528;-67
2021/06/03 00:18:08;;;;;;;7.10;6.27;;;18.30;99.90;;;;;;5031875;28;20508;-67
2021/06/03 00:20:35;;;;;;;6.50;5.83;;;18.10;99.90;;;;;;5031257;28;20170;-66
2021/06/03 00:23:01;;;;;;;7.23;6.67;;;18.00;99.90;;;;;;5031885;28;20178;-66
2021/06/03 00:25:27;;;;;;;6.87;6.37;;;18.00;99.90;;;;;;5030302;28;20441;-66
2021/06/03 00:27:54;;;;;;;7.37;6.67;;;18.10;99.90;;;;;;5031620;28;20420;-66
2021/06/03 00:30:20;;;;;;;6.77;6.20;;;18.00;99.90;;;;;;5031171;28;20417;-66
2021/06/03 00:32:46;;;;;;;7.43;6.73;;;18.00;99.90;;;;;;5031458;28;20449;-66
2021/06/03 00:35:12;;;;;;;7.43;6.77;;;18.00;99.90;;;;;;5031177;28;20463;-66
2021/06/03 00:37:38;;;;;;;6.53;6.00;;;17.90;99.90;;;;;;5031603;28;20542;-66
2021/06/03 00:40:07;;;;;;;6.90;6.33;;;17.90;99.90;;;;;;5031617;28;20166;-68
2021/06/03 00:42:32;;;;;;;6.63;6.03;;;17.90;99.90;;;;;;5031226;28;20500;-67
2021/06/03 00:44:58;;;;;;;6.83;6.30;;;17.80;99.90;;;;;;5031092;28;20527;-67
2021/06/03 00:47:23;;;;;;;7.37;6.87;;;17.80;99.90;;;;;;5031229;28;20182;-68
2021/06/03 00:49:49;;;;;;;7.50;6.90;;;17.80;99.90;;;;;;5030895;28;20671;-67
2021/06/03 00:52:15;;;;;;;8.53;7.90;;;17.60;99.90;;;;;;5031097;28;20573;-67
2021/06/03 00:54:40;;;;;;;8.70;8.10;;;17.70;99.90;;;;;;5031288;28;20190;-68
2021/06/03 00:57:06;;;;;;;7.90;7.20;;;17.70;99.90;;;;;;5031084;28;20508;-67
2021/06/03 00:59:32;;;;;;;6.67;6.20;;;17.60;99.90;;;;;;5030781;28;20166;-67
2021/06/03 01:01:57;;;;;;;8.00;7.40;;;17.50;99.90;;;;;;5031036;28;20174;-67
2021/06/03 01:04:23;;;;;;;7.00;6.50;;;17.30;99.90;;;;;;5031395;28;20188;-68
2021/06/03 01:06:49;;;;;;;6.80;6.20;;;17.30;99.90;;;;;;5031175;28;20201;-67
2021/06/03 01:09:28;;;;;;;8.50;7.07;;;17.20;99.90;;;;;;5030615;28;20170;-67
2021/06/03 01:12:18;;;;;;;11.77;8.73;;;17.20;99.90;;;;;;5030726;28;20516;-67
2021/06/03 01:14:48;;;;;;;6.40;5.90;;;17.10;99.90;;;;;;5030309;28;20860;-67
2021/06/03 01:17:16;;;;;;;6.90;6.20;;;17.10;99.90;;;;;;5030841;28;20913;-68
2021/06/03 01:19:43;;;;;;;7.07;6.37;;;17.10;99.90;;;;;;5030988;28;20495;-67
2021/06/03 01:22:17;;;;;;;7.03;6.43;;;17.10;99.90;;;;;;5030738;28;20421;-67
2021/06/03 01:24:53;;;;;;;8.60;7.90;;;17.00;99.90;;;;;;5030749;28;20462;-67
2021/06/03 01:27:24;;;;;;;9.87;9.07;;;17.00;99.90;;;;;;5030647;28;20500;-67
2021/06/03 01:30:08;;;;;;;7.77;7.17;;;16.90;99.90;;;;;;5030455;28;20420;-67
2021/06/03 01:32:37;;;;;;;7.57;6.87;;;16.80;99.90;;;;;;5030965;28;20448;-67
2021/06/03 01:35:06;;;;;;;7.43;6.73;;;16.70;99.90;;;;;;5030507;28;20809;-67
2021/06/03 01:37:32;;;;;;;8.27;7.47;;;16.70;99.90;;;;;;5030585;28;20419;-67
2021/06/03 01:39:58;;;;;;;7.67;6.87;;;16.70;99.90;;;;;;5030543;28;21001;-68
2021/06/03 01:42:24;;;;;;;8.43;7.50;;;16.80;99.90;;;;;;5030714;28;20420;-68
2021/06/03 01:44:50;;;;;;;7.83;7.10;;;16.80;99.90;;;;;;5030555;28;20510;-68
2021/06/03 01:47:15;;;;;;;7.40;6.80;;;16.80;99.90;;;;;;5030450;28;20182;-67
2021/06/03 01:49:43;;;;;;;8.13;7.53;;;16.80;99.90;;;;;;5030306;28;20539;-67
2021/06/03 01:52:09;;;;;;;7.10;6.60;;;16.70;99.90;;;;;;5028988;28;20206;-67
2021/06/03 01:54:35;;;;;;;7.53;6.90;;;16.80;99.90;;;;;;5030442;28;20439;-68
2021/06/03 01:57:03;;;;;;;8.23;7.27;;;16.80;99.90;;;;;;5030466;28;20703;-68
2021/06/03 01:59:31;;;;;;;11.10;7.73;;;16.70;99.90;;;;;;5030179;28;20425;-68
2021/06/03 02:01:57;;;;;;;8.50;7.63;;;16.70;99.90;;;;;;5030534;28;20412;-67
2021/06/03 02:04:22;;;;;;;8.07;7.10;;;16.60;99.90;;;;;;5030896;28;20445;-69
2021/06/03 02:06:48;;;;;;;8.17;7.67;;;16.60;99.90;;;;;;5030249;28;20539;-69
2021/06/03 02:09:13;;;;;;;11.43;10.50;;;16.60;99.90;;;;;;5028730;28;20264;-68
2021/06/03 02:11:41;;;;;;;10.50;9.53;;;16.50;99.90;;;;;;5030495;28;20181;-67
2021/06/03 02:14:09;;;;;;;9.20;8.30;;;16.50;99.90;;;;;;5030467;28;20284;-67
2021/06/03 02:16:45;;;;;;;8.10;7.40;;;16.50;99.90;;;;;;5030145;28;20421;-67
2021/06/03 02:19:24;;;;;;;9.50;7.63;;;16.50;99.90;;;;;;5029960;28;20459;-68
2021/06/03 02:21:50;;;;;;;7.37;6.77;;;16.50;99.90;;;;;;5030178;28;20437;-68
2021/06/03 02:24:16;;;;;;;7.20;6.70;;;16.60;99.90;;;;;;5031232;28;20495;-67
2021/06/03 02:26:44;;;;;;;7.73;7.23;;;16.60;99.90;;;;;;5033796;28;20424;-69
2021/06/03 02:29:11;;;;;;;8.20;6.73;;;16.60;99.90;;;;;;5033506;28;20232;-69
2021/06/03 02:31:38;;;;;;;7.20;6.57;;;16.60;99.90;;;;;;5033768;28;20985;-68
2021/06/03 02:34:05;;;;;;;7.40;6.70;;;16.70;99.90;;;;;;5033640;28;21020;-68
2021/06/03 02:36:31;;;;;;;7.43;6.83;;;16.70;99.90;;;;;;5033907;28;20467;-69
2021/06/03 02:38:57;;;;;;;7.40;6.90;;;16.80;99.90;;;;;;5033644;28;20409;-68
2021/06/03 02:41:23;;;;;;;6.67;6.17;;;16.90;99.90;;;;;;5033801;28;20486;-68
2021/06/03 02:43:49;;;;;;;6.60;6.10;;;16.90;99.90;;;;;;5033624;28;20182;-68
2021/06/03 02:46:17;;;;;;;7.13;6.50;;;16.90;99.90;;;;;;5033489;28;20420;-67
2021/06/03 02:48:43;;;;;;;7.73;7.03;;;17.00;99.90;;;;;;5033288;28;20186;-68
2021/06/03 02:51:10;;;;;;;8.00;6.77;;;17.00;99.90;;;;;;5033515;28;20906;-68
2021/06/03 02:53:36;;;;;;;6.93;6.43;;;17.10;99.90;;;;;;5033430;28;20206;-68
2021/06/03 02:56:02;;;;;;;8.23;7.43;;;17.00;99.90;;;;;;5033450;28;20440;-68
2021/06/03 02:58:28;;;;;;;6.43;6.03;;;17.00;99.90;;;;;;5033657;28;20431;-68
2021/06/03 03:00:54;;;;;;;7.77;7.13;;;17.00;99.90;;;;;;5033033;28;20776;-68
2021/06/03 03:03:20;;;;;;;6.77;6.27;;;17.00;99.90;;;;;;5033300;28;20257;-68
2021/06/03 03:05:45;;;;;;;8.37;7.67;;;16.90;99.90;;;;;;5033237;28;20316;-68
2021/06/03 03:08:11;;;;;;;7.00;6.50;;;16.90;99.90;;;;;;5033154;28;20166;-67
2021/06/03 03:10:44;;;;;;;8.63;7.83;;;17.00;99.90;;;;;;5032976;28;20182;-68
2021/06/03 03:13:13;;;;;;;8.27;7.57;;;17.00;99.90;;;;;;5032906;28;20825;-70
2021/06/03 03:15:39;;;;;;;7.80;7.10;;;17.00;99.90;;;;;;5032742;28;21020;-68
2021/06/03 03:18:05;;;;;;;8.67;7.13;;;17.00;99.90;;;;;;5032918;28;20910;-70
2021/06/03 03:20:31;;;;;;;7.10;6.50;;;17.10;99.90;;;;;;5032711;28;20420;-69
2021/06/03 03:22:57;;;;;;;7.87;7.13;;;17.10;99.90;;;;;;5032882;28;20465;-67
2021/06/03 03:25:26;;;;;;;8.23;7.53;;;17.10;99.90;;;;;;5032940;28;20285;-67
2021/06/03 03:27:52;;;;;;;7.23;6.63;;;17.00;99.90;;;;;;5032557;28;20500;-67
2021/06/03 03:30:19;;;;;;;7.63;7.13;;;17.00;99.90;;;;;;5032403;28;20512;-68
2021/06/03 03:32:45;;;;;;;7.57;6.97;;;17.00;99.90;;;;;;5032517;28;20460;-68
2021/06/03 03:35:12;;;;;;;7.43;6.80;;;17.00;99.90;;;;;;5030619;28;20460;-67
2021/06/03 03:37:38;;;;;;;7.00;6.43;;;17.00;99.90;;;;;;5031877;28;20447;-67
2021/06/03 03:40:06;;;;;;;7.97;7.37;;;17.10;99.90;;;;;;5032061;28;20512;-68
2021/06/03 03:42:32;;;;;;;7.73;7.13;;;17.10;99.90;;;;;;5031256;28;20424;-67
2021/06/03 03:44:58;;;;;;;7.90;7.30;;;17.20;99.90;;;;;;5032315;28;20506;-67
2021/06/03 03:47:23;;;;;;;6.90;6.30;;;17.40;99.90;;;;;;5032512;28;20664;-68
2021/06/03 03:49:49;;;;;;;7.20;6.60;;;17.40;99.90;;;;;;5031996;28;20219;-67
2021/06/03 03:52:14;;;;;;;7.93;7.17;;;17.30;99.90;;;;;;5032112;28;20194;-68
2021/06/03 03:54:40;;;;;;;7.30;6.80;;;17.40;99.90;;;;;;5032080;28;20201;-68
2021/06/03 03:57:06;;;;;;;6.87;6.37;;;17.30;99.90;;;;;;5032171;28;20685;-68
2021/06/03 03:59:31;;;;;;;6.87;6.33;;;17.30;99.90;;;;;;5032117;28;20591;-67
2021/06/03 04:01:57;;;;;;;7.37;6.67;;;17.40;99.90;;;;;;5047730;28;20488;-70
2021/06/03 04:04:23;;;;;;;8.23;6.20;;;17.40;99.90;;;;;;5032180;28;20190;-70
2021/06/03 04:06:50;;;;;;;8.00;7.40;;;17.50;99.90;;;;;;5032087;28;20173;-70
2021/06/03 04:09:17;;;;;;;7.40;6.87;;;17.60;99.90;;;;;;5031775;28;20409;-67
2021/06/03 04:11:43;;;;;;;8.30;7.63;;;17.60;99.90;;;;;;5031934;28;20853;-68
2021/06/03 04:14:08;;;;;;;10.30;9.50;;;17.60;99.90;;;;;;5031848;28;20497;-67
2021/06/03 04:16:34;;;;;;;10.90;10.00;;;17.60;99.90;;;;;;5032058;28;20448;-68
2021/06/03 04:19:00;;;;;;;10.23;9.40;;;17.40;99.90;;;;;;5031491;28;20198;-68
2021/06/03 04:21:26;;;;;;;8.73;7.93;;;17.40;99.90;;;;;;5031751;28;20249;-67
2021/06/03 04:23:51;;;;;;;7.83;7.33;;;17.30;99.90;;;;;;5046889;28;20178;-67
2021/06/03 04:26:18;;;;;;;8.53;7.93;;;17.30;99.90;;;;;;5031651;28;20170;-68
2021/06/03 04:28:43;;;;;;;8.40;7.80;;;17.40;99.90;;;;;;5031603;28;20178;-68
2021/06/03 04:31:09;;;;;;;7.73;7.00;;;17.50;99.90;;;;;;5031487;28;20432;-68
2021/06/03 04:33:35;;;;;;;6.97;6.43;;;17.50;99.90;;;;;;5031577;28;20233;-68
2021/06/03 04:36:01;;;;;;;6.97;6.47;;;17.50;99.90;;;;;;5031433;28;20514;-68
2021/06/03 04:38:27;;;;;;;7.30;6.80;;;17.50;99.90;;;;;;5031923;28;20417;-68
2021/06/03 04:40:53;;;;;;;7.53;7.03;;;17.60;99.90;;;;;;5031082;28;20456;-68
2021/06/03 04:43:18;;;;;;;7.13;6.60;;;17.70;99.90;;;;;;5046795;28;20636;-67
2021/06/03 04:45:44;;;;;;;7.00;6.50;;;17.80;99.90;;;;;;5031275;28;20212;-68
2021/06/03 04:48:10;;;;;;;6.20;5.70;;;17.80;99.90;;;;;;5031145;28;20236;-68
2021/06/03 04:50:37;;;;;;;9.07;7.10;;;17.90;99.90;;;;;;5030851;28;20417;-67
2021/06/03 04:53:03;;;;;;;8.90;8.20;;;18.10;99.90;;;;;;5031124;28;20192;-67
2021/06/03 04:55:29;;;;;;;7.87;7.23;;;18.10;99.90;;;;;;5029700;28;20813;-68
2021/06/03 04:57:56;;;;;;;8.00;6.77;;;18.20;99.90;;;;;;5031396;28;20574;-70
2021/06/03 05:00:31;;;;;;;7.20;6.60;;;18.20;99.90;;;;;;5030874;28;20849;-70
2021/06/03 05:02:58;;;;;;;7.10;6.50;;;18.40;99.90;;;;;;5031074;28;20434;-68
2021/06/03 05:05:24;;;;;;;7.13;6.63;;;18.40;99.90;;;;;;5030798;28;20437;-68
2021/06/03 05:07:50;;;;;;;6.50;6.10;;;18.40;99.90;;;;;;5031043;28;20819;-68
2021/06/03 05:10:17;;;;;;;7.30;6.80;;;18.50;99.90;;;;;;5030536;28;20446;-68
2021/06/03 05:12:43;;;;;;;7.40;6.70;;;18.70;99.90;;;;;;5030946;28;20459;-68
2021/06/03 05:15:11;;;;;;;7.37;6.03;;;18.90;99.90;;;;;;5031164;28;20432;-68
2021/06/03 05:17:37;;;;;;;7.50;6.83;;;19.00;99.90;;;;;;5030878;28;20952;-68
2021/06/03 05:20:05;;;;;;;7.80;7.10;;;19.10;99.90;;;;;;5030456;28;20417;-68
2021/06/03 05:22:30;;;;;;;6.77;6.30;;;19.20;99.90;;;;;;5030819;28;20999;-68
2021/06/03 05:24:56;;;;;;;6.33;5.83;;;19.40;99.90;;;;;;5030763;28;20440;-68
2021/06/03 05:27:21;;;;;;;8.90;6.33;;;19.60;99.90;;;;;;5030816;28;20181;-68
2021/06/03 05:29:47;;;;;;;6.97;6.47;;;19.80;99.90;;;;;;5030508;28;20643;-68
2021/06/03 05:32:12;;;;;;;6.40;5.90;;;20.00;99.90;;;;;;5030707;28;20235;-68
2021/06/03 05:34:38;;;;;;;7.43;6.77;;;20.40;99.90;;;;;;5030586;28;20217;-68
2021/06/03 05:37:04;;;;;;;7.40;6.80;;;20.60;99.90;;;;;;5030554;28;20223;-68
2021/06/03 05:39:29;;;;;;;7.37;6.83;;;20.70;99.90;;;;;;5030526;28;20173;-68
2021/06/03 05:41:55;;;;;;;7.50;6.80;;;20.70;99.90;;;;;;5042928;28;20225;-68
2021/06/03 05:44:21;;;;;;;6.50;6.00;;;20.80;99.90;;;;;;5030546;28;20248;-68
2021/06/03 05:46:47;;;;;;;6.30;5.70;;;21.00;99.90;;;;;;5042780;28;20662;-68
2021/06/03 05:49:12;;;;;;;5.87;5.47;;;21.10;99.90;;;;;;5031249;28;20549;-68
2021/06/03 05:51:41;;;;;;;6.20;5.60;;;21.10;99.90;;;;;;5041492;28;20548;-68
2021/06/03 05:54:07;;;;;;;6.93;6.30;;;21.10;99.90;;;;;;5032664;28;20212;-68
2021/06/03 05:56:33;;;;;;;6.57;6.07;;;21.00;99.90;;;;;;5041674;28;20440;-68
2021/06/03 05:58:59;;;;;;;6.57;6.07;;;21.00;99.90;;;;;;5029474;28;20421;-68
2021/06/03 06:01:25;;;;;;;6.40;5.90;;;21.00;99.90;;;;;;5039640;28;20186;-68
2021/06/03 06:04:08;;;;;;;7.00;6.43;;;20.90;99.90;;;;;;5034448;28;20194;-68
2021/06/03 06:06:33;;;;;;;6.40;6.00;;;20.80;99.90;;;;;;5033764;28;20428;-68
2021/06/03 06:09:02;;;;;;;5.73;5.27;;;20.70;99.90;;;;;;5036226;28;21019;-68
2021/06/03 06:11:31;;;;;;;7.20;6.60;;;20.70;99.90;;;;;;5035794;28;20707;-68
2021/06/03 06:13:58;;;;;;;4.70;4.40;;;20.70;99.90;;;;;;5041750;28;20976;-69
2021/06/03 06:16:23;;;;;;;5.83;5.43;;;20.70;99.90;;;;;;5034099;28;20910;-68
2021/06/03 06:18:49;;;;;;;5.90;4.90;;;20.60;99.90;;;;;;5036076;28;20431;-71
2021/06/03 06:21:17;;;;;;;5.47;4.33;;;20.70;99.90;;;;;;5043795;28;20185;-65
2021/06/03 06:23:44;;;;;;;4.93;4.53;;;20.70;99.90;;;;;;5041382;28;20203;-64
2021/06/03 06:26:10;;;;;;;5.07;4.77;;;20.80;99.90;;;;;;5038909;28;20424;-64
2021/06/03 06:28:37;;;;;;;5.57;5.07;;;21.00;99.90;;;;;;5035950;28;20500;-64
2021/06/03 06:31:04;;;;;;;5.53;4.70;;;21.10;99.90;;;;;;5044336;28;20174;-64
2021/06/03 06:33:29;;;;;;;5.03;4.70;;;21.30;99.90;;;;;;5033640;28;21111;-64
2021/06/03 06:35:55;;;;;;;5.50;5.13;;;21.40;99.90;;;;;;5033842;28;20458;-64
2021/06/03 06:38:22;;;;;;;4.77;4.47;;;21.50;99.90;;;;;;5034060;28;20170;-64
2021/06/03 06:40:49;;;;;;;5.60;4.73;;;21.60;99.90;;;;;;5034057;28;20196;-65
2021/06/03 06:43:15;;;;;;;5.77;5.37;;;21.60;99.90;;;;;;5033644;28;20432;-65
2021/06/03 06:45:41;;;;;;;5.70;5.13;;;21.60;99.90;;;;;;5033500;28;20433;-65
2021/06/03 06:48:09;;;;;;;5.67;5.17;;;21.70;99.90;;;;;;5034338;28;20429;-65
2021/06/03 06:50:36;;;;;;;4.97;4.47;;;21.80;99.90;;;;;;5030454;28;20459;-64
2021/06/03 06:53:04;;;;;;;4.87;4.57;;;21.80;99.90;;;;;;5029360;28;20551;-64
2021/06/03 06:55:29;;;;;;;4.20;4.00;;;21.90;99.90;;;;;;5033309;28;20457;-65
2021/06/03 06:57:55;;;;;;;5.80;5.40;;;22.00;99.90;;;;;;5033407;28;20417;-65
2021/06/03 07:00:26;;;;;;;5.10;4.70;;;22.30;99.90;;;;;;5032995;28;20329;-65
2021/06/03 07:02:52;;;;;;;4.20;3.90;;;22.20;99.90;;;;;;5033108;28;20253;-66
2021/06/03 07:05:18;;;;;;;5.50;5.03;;;22.20;99.90;;;;;;5033192;28;20525;-63
2021/06/03 07:07:43;;;;;;;5.20;4.73;;;22.60;99.90;;;;;;5033426;28;20586;-65
2021/06/03 07:10:10;;;;;;;6.80;5.73;;;22.60;99.90;;;;;;5032277;28;20652;-64
2021/06/03 07:12:36;;;;;;;5.10;4.70;;;22.60;99.90;;;;;;5032348;28;20357;-65
2021/06/03 07:15:04;;;;;;;6.00;5.40;;;22.50;99.90;;;;;;5033005;28;20440;-65
2021/06/03 07:17:29;;;;;;;6.13;5.53;;;22.70;99.90;;;;;;5033131;28;20413;-65
2021/06/03 07:19:55;;;;;;;4.43;4.03;;;22.80;99.90;;;;;;5032843;28;20918;-64
2021/06/03 07:22:20;;;;;;;4.90;4.40;;;22.80;99.90;;;;;;5032908;28;20226;-65
2021/06/03 07:24:46;;;;;;;5.80;5.20;;;22.90;99.90;;;;;;5032775;28;20186;-63
2021/06/03 07:27:12;;;;;;;5.20;4.70;;;23.00;99.90;;;;;;5032892;28;20178;-65
2021/06/03 07:29:39;;;;;;;5.40;4.90;;;23.60;99.90;;;;;;5032469;28;20178;-64
2021/06/03 07:32:06;;;;;;;5.03;4.63;;;24.10;99.90;;;;;;5032506;28;21116;-65
2021/06/03 07:34:31;;;;;;;4.60;4.20;;;24.70;99.90;;;;;;5032603;28;20602;-64
2021/06/03 07:36:57;;;;;;;4.50;4.20;;;24.80;99.90;;;;;;5032551;28;20498;-63
2021/06/03 07:39:22;;;;;;;4.20;3.80;;;24.80;99.90;;;;;;5032303;28;20178;-63
2021/06/03 07:41:49;;;;;;;4.70;4.30;;;25.10;99.90;;;;;;5032587;28;20221;-64
2021/06/03 07:44:15;;;;;;;4.67;3.80;;;24.70;99.90;;;;;;5039875;28;20199;-64
2021/06/03 07:46:41;;;;;;;3.60;3.40;;;24.50;99.90;;;;;;5036849;28;20519;-64
2021/06/03 07:49:07;;;;;;;4.03;3.10;;;24.20;99.90;;;;;;5031971;28;20224;-64
2021/06/03 07:51:33;;;;;;;4.17;3.70;;;24.40;99.90;;;;;;5032482;28;20265;-68
2021/06/03 07:53:59;;;;;;;3.90;3.60;;;24.80;99.90;;;;;;5032269;28;20460;-70
2021/06/03 07:56:25;;;;;;;2.93;2.73;;;25.00;99.90;;;;;;5032153;28;20641;-68
2021/06/03 07:58:51;;;;;;;4.23;3.80;;;25.40;99.90;;;;;;5031874;28;20236;-69
2021/06/03 08:01:16;;;;;;;4.53;4.23;;;25.90;99.90;;;;;;5032108;28;20425;-68
2021/06/03 08:03:42;;;;;;;3.90;3.60;;;26.30;99.90;;;;;;5032006;28;20175;-68
2021/06/03 08:06:09;;;;;;;3.00;2.80;;;26.50;99.20;;;;;;5032077;28;20182;-68
2021/06/03 08:08:37;;;;;;;3.20;2.90;;;27.10;98.70;;;;;;5031974;28;20420;-68
2021/06/03 08:11:08;;;;;;;3.30;3.00;;;27.60;97.10;;;;;;5032324;28;20420;-68
2021/06/03 08:13:34;;;;;;;6.17;3.30;;;28.20;95.90;;;;;;5031916;28;20806;-69
2021/06/03 08:16:01;;;;;;;3.20;2.90;;;28.20;94.50;;;;;;5031923;28;20429;-69
2021/06/03 08:18:26;;;;;;;4.17;3.47;;;28.40;94.00;;;;;;5031910;28;20508;-68
2021/06/03 08:20:59;;;;;;;2.97;2.77;;;28.50;93.40;;;;;;5031394;28;20865;-68
2021/06/03 08:23:27;;;;;;;7.57;6.93;;;28.10;92.80;;;;;;5031533;28;20537;-68
2021/06/03 08:25:53;;;;;;;4.33;4.03;;;28.60;92.90;;;;;;5031657;28;20441;-68
2021/06/03 08:28:19;;;;;;;4.67;4.27;;;28.40;92.20;;;;;;5031714;28;20423;-68
2021/06/03 08:30:46;;;;;;;3.77;3.50;;;28.50;91.90;;;;;;5031359;28;20600;-68
2021/06/03 08:33:11;;;;;;;3.40;3.10;;;28.10;92.30;;;;;;5031413;28;20599;-68
2021/06/03 08:35:38;;;;;;;4.27;3.43;;;27.80;92.20;;;;;;5032981;28;20543;-68
2021/06/03 08:38:10;;;;;;;3.43;3.13;;;27.40;93.00;;;;;;5031479;28;20174;-68
2021/06/03 08:40:39;;;;;;;3.83;3.63;;;27.70;92.50;;;;;;5031047;28;20417;-67
2021/06/03 08:43:06;;;;;;;3.10;2.90;;;28.40;91.70;;;;;;5031353;28;20425;-69
2021/06/03 08:45:33;;;;;;;4.37;4.00;;;28.60;90.70;;;;;;5031421;28;20443;-69
2021/06/03 08:48:00;;;;;;;3.37;3.17;;;28.80;90.00;;;;;;5031398;28;20420;-68
2021/06/03 08:50:29;;;;;;;4.17;3.30;;;28.40;90.00;;;;;;5031330;28;20508;-68
2021/06/03 08:52:56;;;;;;;3.17;2.57;;;28.10;90.20;;;;;;5031012;28;20456;-69
2021/06/03 08:58:10;;;;;;;3.40;3.10;;;27.30;91.00;;;;;;5031416;28;20435;-68
2021/06/03 09:00:36;;;;;;;4.30;3.33;;;26.90;91.50;;;;;;5030054;28;20772;-68
2021/06/03 09:03:02;;;;;;;2.80;2.60;;;26.50;91.60;;;;;;5031215;28;20433;-68
2021/06/03 09:05:28;;;;;;;3.33;3.10;;;26.40;91.90;;;;;;5031032;28;20437;-65
2021/06/03 09:07:54;;;;;;;4.07;3.70;;;26.40;92.40;;;;;;5030801;28;20906;-65
2021/06/03 09:10:27;;;;;;;3.93;3.67;;;26.40;92.60;;;;;;5028283;28;20276;-63
2021/06/03 09:13:11;;;;;;;4.17;3.40;;;26.90;91.70;;;;;;5030460;28;20559;-64
2021/06/03 09:15:39;;;;;;;4.97;4.50;;;27.60;90.90;;;;;;5030145;28;20861;-64
2021/06/03 09:18:08;;;;;;;3.60;3.40;;;27.70;90.90;;;;;;5030946;28;20471;-64
2021/06/03 09:20:34;;;;;;;3.50;3.20;;;28.40;90.40;;;;;;5030555;28;20413;-65
2021/06/03 09:23:00;;;;;;;3.67;3.43;;;29.20;88.40;;;;;;5030767;28;20436;-65
2021/06/03 09:25:39;;;;;;;4.07;3.60;;;29.40;88.20;;;;;;5030482;28;20456;-64
2021/06/03 09:28:22;;;;;;;3.63;3.33;;;29.20;87.80;;;;;;5030742;28;20627;-65
2021/06/03 09:30:53;;;;;;;7.30;6.03;;;28.80;88.80;;;;;;5030480;28;20782;-65
2021/06/03 09:33:19;;;;;;;2.83;2.63;;;28.80;89.10;;;;;;5030556;28;20465;-64
2021/06/03 09:35:55;;;;;;;3.03;2.83;;;29.20;87.40;;;;;;5033939;28;20985;-63
2021/06/03 09:38:21;;;;;;;3.70;3.40;;;28.70;85.30;;;;;;5034745;28;20169;-64
2021/06/03 09:40:50;;;;;;;3.50;3.20;;;28.80;84.10;;;;;;5034329;28;20516;-65
2021/06/03 09:43:20;;;;;;;3.50;3.30;;;29.40;82.30;;;;;;5034609;28;20194;-63
2021/06/03 09:46:00;;;;;;;4.00;3.70;;;30.30;80.70;;;;;;5034470;28;20451;-64
2021/06/03 09:48:39;;;;;;;3.10;2.90;;;30.60;78.70;;;;;;5034487;28;20431;-64
2021/06/03 09:51:28;;;;;;;3.80;3.60;;;31.10;76.80;;;;;;5034171;28;20455;-65
2021/06/03 09:53:58;;;;;;;4.03;3.73;;;31.70;75.40;;;;;;5034347;28;20456;-64
2021/06/03 09:56:30;;;;;;;3.83;3.53;;;31.20;74.20;;;;;;5034814;28;20423;-64
2021/06/03 09:58:56;;;;;;;3.27;3.07;;;30.80;75.00;;;;;;5034214;28;20417;-63
2021/06/03 10:01:40;;;;;;;3.80;3.50;;;30.80;74.00;;;;;;5034167;28;20499;-65
2021/06/03 10:04:07;;;;;;;3.40;3.20;;;29.50;75.90;;;;;;5034096;28;20442;-64
2021/06/03 10:06:33;;;;;;;3.40;3.10;;;29.10;77.50;;;;;;5033938;28;20845;-65
2021/06/03 10:08:59;;;;;;;2.87;2.67;;;28.70;77.50;;;;;;5033514;28;20444;-64
2021/06/03 10:11:48;;;;;;;3.17;2.97;;;29.00;77.60;;;;;;5033808;28;20934;-64
2021/06/03 10:14:17;;;;;;;2.97;2.67;;;30.10;74.80;;;;;;5033712;28;20241;-64
2021/06/03 10:16:43;;;;;;;2.87;2.63;;;31.50;71.30;;;;;;5033276;28;20416;-64
2021/06/03 10:19:28;;;;;;;3.90;3.60;;;31.50;69.20;;;;;;5033143;28;20930;-65
2021/06/03 10:22:10;;;;;;;3.83;3.00;;;32.00;69.20;;;;;;5033705;28;20425;-65
2021/06/03 10:25:14;;;;;;;2.93;2.73;;;31.10;67.20;;;;;;5032763;28;20456;-65
2021/06/03 10:27:49;;;;;;;3.83;3.63;;;30.10;69.00;;;;;;5033827;28;20424;-65
2021/06/03 10:30:22;;;;;;;3.40;3.10;;;30.90;67.90;;;;;;5033481;28;20428;-65
2021/06/03 10:32:50;;;;;;;3.03;2.83;;;31.60;67.10;;;;;;5032955;28;20460;-63
2021/06/03 10:35:18;;;;;;;4.93;3.30;;;32.50;63.20;;;;;;5033486;28;20456;-65
2021/06/03 10:37:45;;;;;;;4.00;3.70;;;33.30;62.40;;;;;;5033506;28;20448;-64
2021/06/03 10:40:15;;;;;;;3.30;3.10;;;34.40;59.40;;;;;;5033515;28;20417;-64
2021/06/03 10:42:42;;;;;;;2.73;2.63;;;34.80;58.80;;;;;;5033211;28;20453;-65
2021/06/03 10:45:10;;;;;;;4.33;3.10;;;34.90;56.90;;;;;;5033416;28;20467;-64
2021/06/03 10:47:36;;;;;;;3.20;2.93;;;35.50;56.80;;;;;;5046421;28;20443;-64
2021/06/03 10:50:06;;;;;;;5.20;3.10;;;35.80;54.50;;;;;;5053470;28;20980;-64
2021/06/03 10:52:32;;;;;;;4.83;3.57;;;34.20;55.40;;;;;;5033862;28;20458;-65
2021/06/03 10:54:59;;;;;;;3.27;2.97;;;33.00;57.50;;;;;;5033988;28;20437;-64
2021/06/03 10:57:44;;;;;;;2.90;2.70;;;32.60;56.20;;;;;;5033771;28;20186;-64
2021/06/03 11:00:23;;;;;;;4.97;4.57;;;32.60;57.10;;;;;;5033239;28;20451;-64
2021/06/03 11:02:51;;;;;;;3.77;3.47;;;32.50;58.00;;;;;;5034241;28;20786;-65
2021/06/03 11:05:31;;;;;;;4.20;3.83;;;31.30;59.10;;;;;;5033390;28;20472;-65
2021/06/03 11:08:16;;;;;;;3.97;3.77;;;31.10;59.90;;;;;;5033131;28;20420;-64
2021/06/03 11:10:42;;;;;;;2.70;2.60;;;32.40;58.20;;;;;;5032453;28;20816;-64
2021/06/03 11:13:12;;;;;;;3.50;3.30;;;33.30;56.60;;;;;;5033174;28;20463;-64
2021/06/03 11:18:48;;;;;;;3.33;3.13;;;32.20;57.40;;;;;;5434725;23;20490;-64
2021/06/03 11:21:38;;;;;;;3.10;2.90;;;31.30;62.80;;;;;;4988979;28;21013;-64
2021/06/03 11:24:16;;;;;;;3.83;3.63;;;31.20;64.60;;;;;;4993261;28;20434;-64
2021/06/03 11:26:42;;;;;;;3.93;3.70;;;31.30;65.40;;;;;;4987242;28;20440;-64
2021/06/03 11:29:10;;;;;;;3.70;3.40;;;31.90;65.30;;;;;;4972759;28;20835;-64
2021/06/03 11:31:37;;;;;;;4.10;3.30;;;31.80;65.40;;;;;;4974014;28;20845;-64
2021/06/03 11:34:12;;;;;;;4.97;3.10;;;33.80;62.20;;;;;;4991680;28;20516;-64
2021/06/03 11:36:40;;;;;;;3.63;3.40;;;36.70;57.90;;;;;;4991265;28;20509;-64
2021/06/03 11:39:33;;;;;;;17.87;15.97;;;37.10;55.40;;;;;;4972872;28;20443;-64
2021/06/03 11:42:24;;;;;;;4.20;3.67;;;37.00;55.50;;;;;;4973164;28;20424;-63
2021/06/03 11:45:10;;;;;;;3.73;3.43;;;37.70;52.90;;;;;;4972205;28;20434;-64
2021/06/03 11:47:39;;;;;;;15.70;12.37;;;35.90;53.40;;;;;;4972437;28;20444;-65
2021/06/03 11:50:05;;;;;;;3.10;2.97;;;35.70;53.70;;;;;;4972865;28;20432;-62
2021/06/03 11:52:30;;;;;;;4.60;4.30;;;35.80;54.40;;;;;;4983133;28;21005;-63
2021/06/03 11:54:59;;;;;;;3.43;3.13;;;36.40;54.20;;;;;;4992736;28;20191;-63
2021/06/03 11:57:29;;;;;;;3.80;3.50;;;36.40;52.80;;;;;;4991554;28;20331;-64
2021/06/03 11:59:56;;;;;;;4.07;3.67;;;35.40;54.20;;;;;;4992408;28;20430;-62
2021/06/03 12:02:43;;;;;;;3.43;3.20;;;34.00;56.40;;;;;;4992404;28;20454;-63
2021/06/03 12:05:12;;;;;;;4.43;4.10;;;32.70;58.40;;;;;;4992459;28;20426;-64
2021/06/03 12:07:46;;;;;;;3.50;3.20;;;31.90;59.60;;;;;;4991351;28;20952;-62
2021/06/03 12:10:15;;;;;;;4.30;4.00;;;31.50;60.70;;;;;;4992508;28;20927;-63
2021/06/03 12:12:41;;;;;;;4.53;3.93;;;32.30;59.70;;;;;;4992185;28;20455;-63
2021/06/03 12:15:22;;;;;;;2.90;2.70;;;33.80;58.10;;;;;;4991512;28;20446;-63
2021/06/03 12:17:54;;;;;;;3.97;3.67;;;35.30;56.70;;;;;;4990281;28;20541;-62
2021/06/03 12:20:20;;;;;;;3.00;2.80;;;36.00;54.70;;;;;;4992123;28;20431;-63
2021/06/03 12:22:45;;;;;;;3.40;3.20;;;37.40;53.40;;;;;;4992403;28;20423;-64
2021/06/03 12:25:12;;;;;;;3.47;3.27;;;39.20;51.60;;;;;;4992173;28;20203;-64
2021/06/03 12:27:43;;;;;;;3.70;3.40;;;40.30;50.90;;;;;;4991361;28;20202;-63
2021/06/03 12:30:30;;;;;;;3.73;3.43;;;41.40;49.60;;;;;;4989030;28;20435;-62
2021/06/03 12:33:12;;;;;;;3.83;3.17;;;42.70;49.80;;;;;;4972701;28;20831;-62
2021/06/03 12:35:41;;;;;;;3.80;3.50;;;42.10;47.90;;;;;;4971339;28;20428;-62
2021/06/03 12:38:08;;;;;;;3.47;2.90;;;38.70;50.50;;;;;;4971757;28;20971;-62
2021/06/03 12:40:35;;;;;;;4.47;3.30;;;35.20;54.50;;;;;;4984620;28;20438;-61
2021/06/03 12:43:07;;;;;;;3.63;3.30;;;32.20;55.00;;;;;;4991990;28;20484;-61
2021/06/03 12:45:37;;;;;;;3.67;3.43;;;29.80;59.10;;;;;;4991842;28;20920;-60
2021/06/03 12:48:04;;;;;;;4.53;3.77;;;28.50;62.80;;;;;;4988994;28;20573;-63
2021/06/03 12:50:30;;;;;;;3.60;3.30;;;27.70;66.00;;;;;;4972720;28;20972;-63
2021/06/03 12:52:55;;;;;;;4.73;4.30;;;27.50;69.20;;;;;;4972469;28;20467;-65
2021/06/03 12:55:23;;;;;;;4.67;4.37;;;27.20;70.90;;;;;;4972344;28;20658;-65
2021/06/03 12:57:51;;;;;;;4.20;3.90;;;27.10;72.20;;;;;;4970081;28;20650;-64